Chernivtsi, Ukraine
Current Conditions -  °F | °C
As of 11:00 AM on Thursday 23 Oct 2014 (Local Time) from UKLN Reporting Station
Haze Haze  
Wind Chill: 50°   Ceiling: 700
Heat Index: 50°   Visibility: 1.2mi
Dew Point: 48°   Wind: 13mph
Humidity: 94%   Direction: 80°E
Pressure: 29.8"   Gusts: NA
Location:  48.3°N, 25.93°E
Report Text: UKLN 230800Z 08006MPS 2000 BR BKN007 BKN033CB 10/09 Q1009 15290260 TEMPO 09010G15MPS 1000 SHRA BR BKN003 BKN020CB
Loading
Personal Weather Stations






























Interactive Weather Map
Tropical Storm Tracking
New forecast layout! Learn more

10-Day Weather Forecast

Advertisements
Track Severe Weather on mobile